createdAt,value
2019-03-11T00:00:45.204Z,98505.00
2019-03-11T00:03:22.113Z,98504.00
2019-03-11T00:05:51.618Z,98515.00
2019-03-11T00:08:27.401Z,98523.00
2019-03-11T00:10:56.902Z,98536.00
2019-03-11T00:13:39.210Z,98538.00
2019-03-11T00:16:08.800Z,98542.00
2019-03-11T00:18:38.314Z,98548.00
2019-03-11T00:21:14.168Z,98502.00
2019-03-11T00:23:43.619Z,98565.00
2019-03-11T00:26:25.645Z,98570.00
2019-03-11T00:29:01.255Z,98578.00
2019-03-11T00:31:30.759Z,98576.00
2019-03-11T00:34:12.793Z,98574.00
2019-03-11T00:36:42.300Z,98585.00
2019-03-11T00:39:24.480Z,98595.00
2019-03-11T00:41:53.917Z,98591.00
2019-03-11T00:44:36.786Z,98594.00
2019-03-11T00:47:12.518Z,98602.00
2019-03-11T00:49:48.055Z,98593.00
2019-03-11T00:52:24.048Z,98611.00
2019-03-11T00:54:59.850Z,98609.00
2019-03-11T00:57:36.201Z,98611.00
2019-03-11T01:00:43.670Z,98615.00
2019-03-11T01:03:19.497Z,98623.00
2019-03-11T01:05:55.055Z,98626.00
2019-03-11T01:08:30.782Z,98626.00
2019-03-11T01:11:00.223Z,98632.00
2019-03-11T01:13:36.209Z,98639.00
2019-03-11T01:16:05.863Z,98633.00
2019-03-11T01:18:41.672Z,98642.00
2019-03-11T01:21:17.468Z,98656.00
2019-03-11T01:23:53.236Z,98651.00
2019-03-11T01:26:29.875Z,98657.00
2019-03-11T01:29:06.498Z,98665.00
2019-03-11T01:31:42.884Z,98677.00
2019-03-11T01:34:19.402Z,98686.00
2019-03-11T01:36:55.685Z,98691.00
2019-03-11T01:39:31.376Z,98698.00
2019-03-11T01:42:00.893Z,98703.00
2019-03-11T01:44:37.358Z,98706.00
2019-03-11T01:47:13.870Z,98712.00
2019-03-11T01:49:49.908Z,98713.00
2019-03-11T01:52:19.346Z,98727.00
2019-03-11T01:54:48.784Z,98728.00
2019-03-11T01:57:24.755Z,98736.00
2019-03-11T01:59:54.194Z,98739.00
2019-03-11T02:02:36.282Z,98742.00
2019-03-11T02:05:07.308Z,98745.00
2019-03-11T02:07:43.070Z,98757.00
2019-03-11T02:10:24.340Z,98761.00
2019-03-11T02:12:53.792Z,98768.00
2019-03-11T02:15:29.543Z,98776.00
2019-03-11T02:17:59.074Z,98781.00
2019-03-11T02:20:41.595Z,98785.00
2019-03-11T02:23:17.316Z,98800.00
2019-03-11T02:25:52.790Z,98806.00
2019-03-11T02:28:22.296Z,98809.00
2019-03-11T02:30:58.351Z,98826.00
2019-03-11T02:33:27.932Z,98825.00
2019-03-11T02:35:57.388Z,98834.00
2019-03-11T02:38:33.108Z,98843.00
2019-03-11T02:41:15.557Z,98851.00
2019-03-11T02:43:45.071Z,98791.00
2019-03-11T02:46:27.175Z,98850.00
2019-03-11T02:49:03.418Z,98861.00
2019-03-11T02:51:39.775Z,98860.00
2019-03-11T02:54:09.204Z,98872.00
2019-03-11T02:56:45.329Z,98876.00
2019-03-11T02:59:21.598Z,98888.00
2019-03-11T03:02:05.234Z,98886.00
2019-03-11T03:04:35.773Z,98903.00
2019-03-11T03:07:12.053Z,98901.00
2019-03-11T03:09:41.804Z,98952.00
2019-03-11T03:12:11.491Z,98922.00
2019-03-11T03:14:47.153Z,98924.00
2019-03-11T03:17:29.094Z,98923.00
2019-03-11T03:19:58.523Z,98936.00
2019-03-11T03:22:34.073Z,98935.00
2019-03-11T03:25:11.037Z,98943.00
2019-03-11T03:27:40.510Z,98938.00
2019-03-11T03:30:26.165Z,98950.00
2019-03-11T03:33:01.861Z,98946.00
2019-03-11T03:35:38.410Z,98947.00
2019-03-11T03:38:28.835Z,98952.00
2019-03-11T03:40:58.991Z,98949.00
2019-03-11T03:43:28.424Z,98963.00
2019-03-11T03:46:18.586Z,98967.00
2019-03-11T03:48:55.760Z,98968.00
2019-03-11T03:51:25.200Z,98972.00
2019-03-11T03:54:07.612Z,98979.00
2019-03-11T03:56:44.135Z,98990.00
2019-03-11T03:59:13.584Z,98986.00
2019-03-11T04:01:49.302Z,99000.00
2019-03-11T04:04:18.747Z,99000.00
2019-03-11T04:06:54.774Z,99000.00
2019-03-11T04:09:24.203Z,99001.00
2019-03-11T04:11:53.636Z,99014.00
2019-03-11T04:14:29.185Z,99020.00
2019-03-11T04:16:58.833Z,99023.00
2019-03-11T04:19:40.904Z,99023.00
2019-03-11T04:22:10.469Z,99038.00
2019-03-11T04:24:47.081Z,99030.00
2019-03-11T04:27:30.477Z,99037.00
2019-03-11T04:30:06.911Z,99040.00
2019-03-11T04:32:36.411Z,99037.00
2019-03-11T04:35:14.365Z,99043.00
2019-03-11T04:37:43.939Z,99075.00
2019-03-11T04:40:21.420Z,99053.00
2019-03-11T04:42:50.923Z,99065.00
2019-03-11T04:45:26.781Z,99059.00
2019-03-11T04:48:03.219Z,99061.00
2019-03-11T04:50:46.024Z,99071.00
2019-03-11T04:53:22.190Z,99077.00
2019-03-11T04:55:51.700Z,99075.00
2019-03-11T04:58:21.138Z,99081.00
2019-03-11T05:00:57.091Z,99083.00
2019-03-11T05:03:26.594Z,99090.00
2019-03-11T05:06:02.571Z,99092.00
2019-03-11T05:08:32.004Z,99089.00
2019-03-11T05:11:08.416Z,99092.00
2019-03-11T05:13:37.887Z,99099.00
2019-03-11T05:16:13.813Z,99104.00
2019-03-11T05:18:49.277Z,99110.00
2019-03-11T05:21:25.267Z,99114.00
2019-03-11T05:23:54.711Z,99119.00
2019-03-11T05:26:30.774Z,99114.00
2019-03-11T05:29:07.220Z,99120.00
2019-03-11T05:31:43.204Z,99127.00
2019-03-11T05:34:12.646Z,99128.00
2019-03-11T05:36:48.946Z,99128.00
2019-03-11T05:39:18.391Z,99185.00
2019-03-11T05:41:54.532Z,99141.00
2019-03-11T05:44:24.038Z,99138.00
2019-03-11T05:46:53.491Z,99154.00
2019-03-11T05:49:29.891Z,99156.00
2019-03-11T05:52:05.542Z,99154.00
2019-03-11T05:54:41.634Z,99170.00
2019-03-11T05:57:17.592Z,99170.00
2019-03-11T05:59:47.029Z,99180.00
2019-03-11T06:02:23.063Z,99175.00
2019-03-11T06:04:52.502Z,99173.00
2019-03-11T06:07:28.437Z,99178.00
2019-03-11T06:09:57.886Z,99180.00
2019-03-11T06:12:27.388Z,99179.00
2019-03-11T06:15:03.310Z,99178.00
2019-03-11T06:17:39.081Z,99177.00
2019-03-11T06:20:18.201Z,99188.00
2019-03-11T06:22:54.129Z,99195.00
2019-03-11T06:25:30.422Z,99188.00
2019-03-11T06:28:06.787Z,99187.00
2019-03-11T06:30:43.591Z,99188.00
2019-03-11T06:33:13.032Z,99191.00
2019-03-11T06:35:42.481Z,99190.00
2019-03-11T06:38:18.473Z,99194.00
2019-03-11T06:40:47.939Z,99206.00
2019-03-11T06:43:24.026Z,99197.00
2019-03-11T06:45:53.453Z,99194.00
2019-03-11T06:48:36.235Z,99200.00
2019-03-11T06:51:18.792Z,99206.00
2019-03-11T06:53:48.234Z,99208.00
2019-03-11T06:56:24.278Z,99211.00
2019-03-11T06:58:53.711Z,99221.00
2019-03-11T07:01:29.859Z,99171.00
2019-03-11T07:03:59.317Z,99230.00
2019-03-11T07:06:35.428Z,99234.00
2019-03-11T07:09:14.030Z,99238.00
2019-03-11T07:11:43.666Z,99240.00
2019-03-11T07:14:19.358Z,99232.00
2019-03-11T07:16:54.948Z,99237.00
2019-03-11T07:19:31.541Z,99240.00
2019-03-11T07:22:07.382Z,99238.00
2019-03-11T07:24:36.820Z,99252.00
2019-03-11T07:27:13.281Z,99250.00
2019-03-11T07:29:55.232Z,99249.00
2019-03-11T07:32:24.668Z,99250.00
2019-03-11T07:35:08.370Z,99249.00
2019-03-11T07:37:38.580Z,99260.00
2019-03-11T07:40:11.872Z,99256.00
2019-03-11T07:42:47.551Z,99255.00
2019-03-11T07:45:24.337Z,99254.00
2019-03-11T07:47:53.776Z,99277.00
2019-03-11T07:50:36.006Z,99263.00
2019-03-11T07:53:11.479Z,99269.00
2019-03-11T07:55:47.462Z,99260.00
2019-03-11T07:58:16.964Z,99267.00
2019-03-11T08:00:53.802Z,99276.00
2019-03-11T08:03:23.665Z,99274.00
2019-03-11T08:06:00.126Z,99274.00
2019-03-11T08:08:29.558Z,99268.00
2019-03-11T08:11:05.999Z,99272.00
2019-03-11T08:13:41.779Z,99271.00
2019-03-11T08:16:11.219Z,99270.00
2019-03-11T08:18:40.649Z,99271.00
2019-03-11T08:21:16.430Z,99266.00
2019-03-11T08:23:45.868Z,99263.00
2019-03-11T08:26:15.301Z,99253.00
2019-03-11T08:28:58.050Z,99259.00
2019-03-11T08:31:33.910Z,99262.00
2019-03-11T08:34:03.411Z,99261.00
2019-03-11T08:36:39.991Z,99262.00
2019-03-11T08:39:11.436Z,99268.00
2019-03-11T08:41:40.938Z,99269.00
2019-03-11T08:44:22.884Z,99261.00
2019-03-11T08:46:52.332Z,99273.00
2019-03-11T08:49:21.785Z,99278.00
2019-03-11T08:51:58.589Z,99285.00
2019-03-11T08:54:28.024Z,99289.00
2019-03-11T08:57:04.298Z,99293.00
2019-03-11T08:59:33.739Z,99290.00
2019-03-11T09:02:10.281Z,99305.00
2019-03-11T09:04:45.875Z,99305.00
2019-03-11T09:07:15.319Z,99298.00
2019-03-11T09:09:44.754Z,99296.00
2019-03-11T09:12:21.206Z,99289.00
2019-03-11T09:14:57.124Z,99308.00
2019-03-11T09:17:32.667Z,99308.00
2019-03-11T09:20:02.174Z,99296.00
2019-03-11T09:22:38.654Z,99307.00
2019-03-11T09:25:16.954Z,99297.00
2019-03-11T09:27:53.508Z,99314.00
2019-03-11T09:30:24.061Z,99310.00
2019-03-11T09:33:08.412Z,99307.00
2019-03-11T09:35:44.334Z,99323.00
2019-03-11T09:38:20.779Z,99314.00
2019-03-11T09:40:50.283Z,99318.00
2019-03-11T09:43:27.342Z,99313.00
2019-03-11T09:45:56.873Z,99295.00
2019-03-11T09:48:32.892Z,99308.00
2019-03-11T09:51:15.347Z,99304.00
2019-03-11T09:53:50.784Z,99306.00
2019-03-11T09:56:26.460Z,99298.00
2019-03-11T09:59:02.286Z,99315.00
2019-03-11T10:01:31.875Z,99312.00
2019-03-11T10:04:09.518Z,99329.00
2019-03-11T10:06:45.999Z,99320.00
2019-03-11T10:09:22.516Z,99326.00
2019-03-11T10:11:59.046Z,99335.00
2019-03-11T10:14:28.484Z,99331.00
2019-03-11T10:16:57.942Z,99321.00
2019-03-11T10:19:34.230Z,99321.00
2019-03-11T10:22:03.680Z,99331.00
2019-03-11T10:24:39.695Z,99334.00
2019-03-11T10:27:22.210Z,99330.00
2019-03-11T10:29:57.856Z,99332.00
2019-03-11T10:32:27.368Z,99335.00
2019-03-11T10:35:03.134Z,99331.00
2019-03-11T10:37:46.418Z,99186.00
2019-03-11T10:40:37.984Z,99347.00
2019-03-11T10:43:14.569Z,99346.00
2019-03-11T10:45:50.518Z,99343.00
2019-03-11T10:48:36.844Z,99357.00
2019-03-11T10:50:58.375Z,99343.00
2019-03-11T10:53:40.538Z,99343.00
2019-03-11T10:56:16.082Z,99342.00
2019-03-11T10:58:45.533Z,99350.00
2019-03-11T11:01:22.006Z,99351.00
2019-03-11T11:03:57.612Z,99356.00
2019-03-11T11:06:33.332Z,99351.00
2019-03-11T11:09:03.551Z,99352.00
2019-03-11T11:11:39.615Z,99361.00
2019-03-11T11:14:16.289Z,99354.00
2019-03-11T11:16:46.591Z,99353.00
2019-03-11T11:19:16.113Z,99356.00
2019-03-11T11:21:51.789Z,99353.00
2019-03-11T11:24:21.247Z,99362.00
2019-03-11T11:26:50.744Z,99376.00
2019-03-11T11:29:27.109Z,99383.00
2019-03-11T11:32:03.103Z,99373.00
2019-03-11T11:34:39.878Z,99364.00
2019-03-11T11:37:16.196Z,99369.00
2019-03-11T11:39:52.355Z,99371.00
2019-03-11T11:42:21.934Z,99365.00
2019-03-11T11:44:58.451Z,99374.00
2019-03-11T11:47:34.817Z,99358.00
2019-03-11T11:50:07.024Z,99365.00
2019-03-11T11:52:43.049Z,99365.00
2019-03-11T11:55:20.311Z,99362.00
2019-03-11T11:57:56.498Z,99360.00
2019-03-11T12:00:37.129Z,99362.00
2019-03-11T12:03:13.773Z,99370.00
2019-03-11T12:05:50.069Z,99363.00
2019-03-11T12:08:19.501Z,99356.00
2019-03-11T12:10:55.528Z,99355.00
2019-03-11T12:13:32.200Z,99360.00
2019-03-11T12:16:01.725Z,99358.00
2019-03-11T12:18:37.767Z,99361.00
2019-03-11T12:21:07.271Z,99364.00
2019-03-11T12:23:46.704Z,99363.00
2019-03-11T12:26:27.820Z,99365.00
2019-03-11T12:28:57.257Z,99374.00
2019-03-11T12:31:33.625Z,99370.00
2019-03-11T12:34:16.903Z,99376.00
2019-03-11T12:36:52.570Z,99375.00
2019-03-11T12:39:22.217Z,99378.00
2019-03-11T12:41:58.070Z,99376.00
2019-03-11T12:44:27.577Z,99382.00
2019-03-11T12:47:03.906Z,99383.00
2019-03-11T12:49:33.407Z,99384.00
2019-03-11T12:52:09.244Z,99382.00
2019-03-11T12:54:45.329Z,99385.00
2019-03-11T12:57:27.916Z,99388.00
2019-03-11T12:59:57.424Z,99383.00
2019-03-11T13:02:33.948Z,99388.00
2019-03-11T13:05:04.029Z,99391.00
2019-03-11T13:07:33.536Z,99387.00
2019-03-11T13:10:10.549Z,99385.00
2019-03-11T13:12:40.124Z,99392.00
2019-03-11T13:15:20.009Z,99392.00
2019-03-11T13:17:55.943Z,99390.00
2019-03-11T13:20:48.294Z,99385.00
2019-03-11T13:23:17.825Z,99336.00
2019-03-11T13:25:53.971Z,99390.00
2019-03-11T13:28:23.485Z,99391.00
2019-03-11T13:30:59.860Z,99388.00
2019-03-11T13:33:36.020Z,99390.00
2019-03-11T13:36:08.344Z,99405.00
2019-03-11T13:38:38.504Z,99398.00
2019-03-11T13:41:21.079Z,99395.00
2019-03-11T13:43:56.791Z,99395.00
2019-03-11T13:46:26.444Z,99398.00
2019-03-11T13:49:02.716Z,99394.00
2019-03-11T13:51:32.154Z,99401.00
2019-03-11T13:54:22.661Z,99402.00
2019-03-11T13:57:12.085Z,99402.00
2019-03-11T13:59:41.598Z,99409.00
2019-03-11T14:02:17.352Z,99409.00
2019-03-11T14:04:53.941Z,99406.00
2019-03-11T14:07:23.386Z,99415.00
2019-03-11T14:09:59.935Z,99415.00
2019-03-11T14:12:29.386Z,99422.00
2019-03-11T14:15:05.822Z,99419.00
2019-03-11T14:17:35.556Z,99415.00
2019-03-11T14:20:08.607Z,99417.00
2019-03-11T14:22:44.736Z,99413.00
2019-03-11T14:25:15.509Z,99414.00
2019-03-11T14:27:45.099Z,99418.00
2019-03-11T14:30:30.166Z,99426.00
2019-03-11T14:32:59.739Z,99420.00
2019-03-11T14:35:36.112Z,99417.00
2019-03-11T14:38:05.701Z,99414.00
2019-03-11T14:40:42.196Z,99413.00
2019-03-11T14:43:11.727Z,99412.00
2019-03-11T14:45:47.260Z,99417.00
2019-03-11T14:48:16.781Z,99419.00
2019-03-11T14:50:55.071Z,99429.00
2019-03-11T14:53:24.634Z,99427.00
2019-03-11T14:56:07.334Z,99473.00
2019-03-11T14:58:49.847Z,99431.00
2019-03-11T15:01:19.431Z,99488.00
2019-03-11T15:03:48.887Z,99425.00
2019-03-11T15:06:24.675Z,99437.00
2019-03-11T15:09:00.559Z,99435.00
2019-03-11T15:11:30.084Z,99437.00
2019-03-11T15:14:06.469Z,99433.00
2019-03-11T15:16:42.830Z,99441.00
2019-03-11T15:19:21.457Z,99430.00
2019-03-11T15:21:50.898Z,99438.00
2019-03-11T15:24:27.006Z,99441.00
2019-03-11T15:26:56.579Z,99439.00
2019-03-11T15:29:26.395Z,99436.00
2019-03-11T15:32:08.965Z,99445.00
2019-03-11T15:34:38.411Z,99438.00
2019-03-11T15:37:15.092Z,99442.00
2019-03-11T15:39:50.806Z,99446.00
2019-03-11T15:42:26.877Z,99442.00
2019-03-11T15:45:02.918Z,99438.00
2019-03-11T15:47:38.676Z,99444.00
2019-03-11T15:50:27.500Z,99442.00
2019-03-11T15:53:10.224Z,99439.00
2019-03-11T15:55:46.829Z,99442.00
2019-03-11T15:58:29.872Z,99440.00
2019-03-11T16:00:59.406Z,99447.00
2019-03-11T16:03:36.716Z,99447.00
2019-03-11T16:06:13.303Z,99451.00
2019-03-11T16:08:42.899Z,99462.00
2019-03-11T16:11:19.804Z,99454.00
2019-03-11T16:13:49.397Z,99460.00
2019-03-11T16:16:25.148Z,99478.00
2019-03-11T16:19:01.410Z,99464.00
2019-03-11T16:21:38.678Z,99468.00
2019-03-11T16:24:15.257Z,99469.00
2019-03-11T16:26:51.590Z,99472.00
2019-03-11T16:29:28.142Z,99477.00
2019-03-11T16:31:57.670Z,99483.00
2019-03-11T16:34:35.584Z,99481.00
2019-03-11T16:37:12.078Z,99484.00
2019-03-11T16:39:41.600Z,99487.00
2019-03-11T16:42:11.266Z,99487.00
2019-03-11T16:44:53.355Z,99334.00
2019-03-11T16:47:23.144Z,99490.00
2019-03-11T16:49:59.094Z,99493.00
2019-03-11T16:52:28.689Z,99499.00
2019-03-11T16:55:04.810Z,99496.00
2019-03-11T16:57:41.043Z,99498.00
2019-03-11T17:00:37.337Z,99504.00
2019-03-11T17:03:07.580Z,99511.00
2019-03-11T17:05:43.879Z,99506.00
2019-03-11T17:08:13.546Z,99511.00
2019-03-11T17:10:43.584Z,99521.00
2019-03-11T17:13:20.035Z,99534.00
2019-03-11T17:15:56.625Z,99524.00
2019-03-11T17:18:26.071Z,99526.00
2019-03-11T17:21:01.931Z,99529.00
2019-03-11T17:23:38.280Z,99529.00
2019-03-11T17:26:07.885Z,99533.00
2019-03-11T17:28:44.054Z,99547.00
2019-03-11T17:31:13.735Z,99555.00
2019-03-11T17:33:50.581Z,99553.00
2019-03-11T17:36:27.235Z,99561.00
2019-03-11T17:39:03.778Z,99571.00
2019-03-11T17:41:47.177Z,99570.00
2019-03-11T17:44:22.979Z,99571.00
2019-03-11T17:46:52.976Z,99569.00
2019-03-11T17:49:29.618Z,99578.00
2019-03-11T17:52:05.917Z,99575.00
2019-03-11T17:54:42.233Z,99586.00
2019-03-11T17:57:11.723Z,99592.00
2019-03-11T17:59:54.014Z,99597.00
2019-03-11T18:02:37.443Z,99603.00
2019-03-11T18:05:14.266Z,99614.00
2019-03-11T18:07:50.865Z,99612.00
2019-03-11T18:10:26.644Z,99616.00
2019-03-11T18:12:56.588Z,99618.00
2019-03-11T18:15:33.266Z,99629.00
2019-03-11T18:18:03.012Z,99615.00
2019-03-11T18:20:39.588Z,99621.00
2019-03-11T18:23:09.258Z,99621.00
2019-03-11T18:25:45.117Z,99506.00
2019-03-11T18:28:14.861Z,99635.00
2019-03-11T18:30:51.990Z,99628.00
2019-03-11T18:33:21.675Z,99631.00
2019-03-11T18:35:57.984Z,99635.00
2019-03-11T18:38:27.694Z,99645.00
2019-03-11T18:41:04.233Z,99647.00
2019-03-11T18:43:42.132Z,99647.00
2019-03-11T18:46:05.022Z,99698.00
2019-03-11T18:48:41.420Z,99655.00
2019-03-11T18:51:17.998Z,99544.00
2019-03-11T18:53:54.572Z,99662.00
2019-03-11T18:56:30.581Z,99660.00
2019-03-11T18:59:07.456Z,99658.00
2019-03-11T19:01:43.751Z,99667.00
2019-03-11T19:04:20.191Z,99668.00
2019-03-11T19:06:50.048Z,99671.00
2019-03-11T19:09:26.314Z,99672.00
2019-03-11T19:12:02.908Z,99682.00
2019-03-11T19:14:32.665Z,99682.00
2019-03-11T19:17:09.319Z,99685.00
2019-03-11T19:19:46.031Z,99695.00
2019-03-11T19:22:16.554Z,99694.00
2019-03-11T19:24:53.144Z,99695.00
2019-03-11T19:27:29.253Z,99694.00
2019-03-11T19:30:05.818Z,99696.00
2019-03-11T19:32:49.165Z,99705.00
2019-03-11T19:35:20.111Z,99705.00
2019-03-11T19:37:56.523Z,99706.00
2019-03-11T19:40:33.663Z,99710.00
2019-03-11T19:43:03.493Z,99707.00
2019-03-11T19:45:40.369Z,99723.00
2019-03-11T19:48:10.272Z,99717.00
2019-03-11T19:50:39.950Z,99720.00
2019-03-11T19:53:16.500Z,99722.00
2019-03-11T19:55:52.889Z,99722.00
2019-03-11T19:58:36.194Z,99732.00
2019-03-11T20:01:19.255Z,99728.00
2019-03-11T20:03:55.034Z,99729.00
2019-03-11T20:06:31.119Z,99764.00
2019-03-11T20:09:01.043Z,99737.00
2019-03-11T20:11:30.937Z,99730.00
2019-03-11T20:14:07.106Z,99733.00
2019-03-11T20:16:36.680Z,99733.00
2019-03-11T20:19:13.108Z,99736.00
2019-03-11T20:21:42.764Z,99726.00
2019-03-11T20:24:12.300Z,99737.00
2019-03-11T20:26:48.968Z,99732.00
2019-03-11T20:29:25.051Z,99741.00
2019-03-11T20:31:54.805Z,99741.00
2019-03-11T20:34:24.494Z,99747.00
2019-03-11T20:37:01.341Z,99758.00
2019-03-11T20:39:37.664Z,99755.00
2019-03-11T20:42:07.486Z,99754.00
2019-03-11T20:44:43.588Z,99758.00
2019-03-11T20:47:13.130Z,99754.00
2019-03-11T20:49:42.705Z,99761.00
2019-03-11T20:52:18.407Z,99758.00
2019-03-11T20:54:47.855Z,99759.00
2019-03-11T20:57:24.149Z,99767.00
2019-03-11T21:00:00.837Z,99767.00
2019-03-11T21:02:44.085Z,99772.00
2019-03-11T21:05:35.357Z,99774.00
2019-03-11T21:08:10.758Z,99778.00
2019-03-11T21:10:40.412Z,99773.00
2019-03-11T21:13:17.302Z,99782.00
2019-03-11T21:15:46.932Z,99792.00
2019-03-11T21:18:22.951Z,99765.00
2019-03-11T21:21:04.214Z,99776.00
2019-03-11T21:23:30.375Z,99771.00
2019-03-11T21:25:59.969Z,99820.00
2019-03-11T21:28:36.413Z,99783.00
2019-03-11T21:31:06.018Z,99785.00
2019-03-11T21:33:41.747Z,99788.00
2019-03-11T21:36:25.066Z,99792.00
2019-03-11T21:38:54.826Z,99788.00
2019-03-11T21:41:30.999Z,99783.00
2019-03-11T21:44:06.661Z,99784.00
2019-03-11T21:46:36.251Z,99790.00
2019-03-11T21:49:12.185Z,99795.00
2019-03-11T21:51:48.726Z,99791.00
2019-03-11T21:54:25.389Z,99792.00
2019-03-11T21:56:55.105Z,99790.00
2019-03-11T21:59:30.932Z,99792.00
2019-03-11T22:02:00.430Z,99808.00
2019-03-11T22:04:43.228Z,99797.00
2019-03-11T22:07:12.816Z,99801.00
2019-03-11T22:09:48.849Z,99806.00
2019-03-11T22:12:24.879Z,99799.00
2019-03-11T22:15:00.675Z,99807.00
2019-03-11T22:17:30.198Z,99818.00
2019-03-11T22:19:59.635Z,99809.00
2019-03-11T22:22:36.124Z,99806.00
2019-03-11T22:25:15.613Z,99822.00
2019-03-11T22:27:51.267Z,99813.00
2019-03-11T22:30:29.776Z,99822.00
2019-03-11T22:33:06.322Z,99822.00
2019-03-11T22:35:42.941Z,99833.00
2019-03-11T22:38:12.421Z,99839.00
2019-03-11T22:40:41.927Z,99849.00
2019-03-11T22:43:17.928Z,99848.00
2019-03-11T22:46:02.459Z,99864.00
2019-03-11T22:48:31.906Z,99860.00
2019-03-11T22:51:08.513Z,99677.00
2019-03-11T22:53:37.958Z,99870.00
2019-03-11T22:56:14.634Z,99878.00
2019-03-11T22:58:44.146Z,99869.00
2019-03-11T23:01:13.991Z,99885.00
2019-03-11T23:03:50.799Z,99876.00
2019-03-11T23:06:33.642Z,99876.00
2019-03-11T23:09:04.372Z,99869.00
2019-03-11T23:11:34.047Z,99880.00
2019-03-11T23:14:10.299Z,99876.00
2019-03-11T23:16:46.319Z,99878.00
2019-03-11T23:19:15.774Z,99879.00
2019-03-11T23:21:45.219Z,99880.00
2019-03-11T23:24:21.376Z,99891.00
2019-03-11T23:26:50.876Z,99897.00
2019-03-11T23:29:20.342Z,99889.00
2019-03-11T23:31:56.054Z,99889.00
2019-03-11T23:34:31.577Z,99884.00
2019-03-11T23:37:07.677Z,99897.00
2019-03-11T23:39:43.219Z,99900.00
2019-03-11T23:42:19.970Z,99908.00
2019-03-11T23:44:49.416Z,99903.00
2019-03-11T23:47:25.818Z,99907.00
2019-03-11T23:49:55.272Z,99910.00
2019-03-11T23:52:31.329Z,99926.00
2019-03-11T23:55:16.147Z,99917.00
2019-03-11T23:57:51.929Z,99918.00
